createdAt,value
2022-11-02T00:01:06.604Z,65.32
2022-11-02T00:03:36.588Z,70.28
2022-11-02T00:06:05.407Z,68.20
2022-11-02T00:08:34.078Z,59.58
2022-11-02T00:11:02.693Z,67.30
2022-11-02T00:13:31.027Z,72.32
2022-11-02T00:16:02.566Z,70.13
2022-11-02T00:18:31.384Z,72.80
2022-11-02T00:21:01.645Z,76.53
2022-11-02T00:23:31.041Z,76.90
2022-11-02T00:26:02.368Z,77.57
2022-11-02T00:28:31.253Z,84.32
2022-11-02T00:30:59.915Z,86.53
2022-11-02T00:33:28.689Z,82.80
2022-11-02T00:35:57.688Z,89.43
2022-11-02T00:38:27.650Z,93.78
2022-11-02T00:40:55.914Z,91.33
2022-11-02T00:43:24.517Z,85.30
2022-11-02T00:45:53.130Z,88.93
2022-11-02T00:48:24.050Z,90.10
2022-11-02T00:50:52.888Z,95.10
2022-11-02T00:53:24.591Z,91.40
2022-11-02T00:55:55.764Z,90.30
2022-11-02T00:58:24.364Z,94.80
2022-11-02T01:00:53.520Z,86.13
2022-11-02T01:03:22.128Z,85.15
2022-11-02T01:05:50.709Z,103.20
2022-11-02T01:08:19.398Z,86.07
2022-11-02T01:10:48.500Z,98.53
2022-11-02T01:13:19.748Z,97.95
2022-11-02T01:15:48.428Z,98.95
2022-11-02T01:18:17.084Z,91.70
2022-11-02T01:20:45.788Z,95.18
2022-11-02T01:23:14.393Z,89.22
2022-11-02T01:25:46.971Z,94.53
2022-11-02T01:28:15.618Z,100.57
2022-11-02T01:30:48.090Z,98.63
2022-11-02T01:33:16.784Z,105.97
2022-11-02T01:35:45.413Z,96.15
2022-11-02T01:38:14.020Z,102.05
2022-11-02T01:40:42.475Z,120.38
2022-11-02T01:43:21.554Z,96.43
2022-11-02T01:45:53.059Z,105.47
2022-11-02T01:48:26.038Z,134.40
2022-11-02T01:50:55.337Z,129.50
2022-11-02T01:53:24.189Z,125.75
2022-11-02T01:55:52.876Z,129.85
2022-11-02T01:58:21.612Z,168.77
2022-11-02T02:00:51.880Z,173.95
2022-11-02T02:03:22.699Z,179.63
2022-11-02T02:05:55.532Z,146.70
2022-11-02T02:08:26.471Z,181.68
2022-11-02T02:10:57.715Z,162.75
2022-11-02T02:13:28.835Z,203.60
2022-11-02T02:16:06.576Z,190.10
2022-11-02T02:18:40.362Z,180.68
2022-11-02T02:21:22.377Z,165.63
2022-11-02T02:24:26.246Z,221.25
2022-11-02T02:27:07.162Z,316.20
2022-11-02T02:29:44.229Z,313.52
2022-11-02T02:32:17.847Z,458.25
2022-11-02T02:34:51.626Z,433.33
2022-11-02T02:37:24.029Z,249.60
2022-11-02T02:39:58.313Z,402.88
2022-11-02T02:42:31.567Z,432.88
2022-11-02T02:45:08.069Z,453.50
2022-11-02T02:47:37.087Z,509.20
2022-11-02T02:50:09.558Z,535.50
2022-11-02T02:52:38.889Z,384.17
2022-11-02T02:55:09.439Z,418.50
2022-11-02T02:57:38.987Z,369.33
2022-11-02T03:00:14.360Z,502.33
2022-11-02T03:02:44.522Z,444.30
2022-11-02T03:05:26.953Z,350.85
2022-11-02T03:07:56.624Z,341.52
2022-11-02T03:13:07.671Z,334.52
2022-11-02T03:15:40.545Z,327.73
2022-11-02T03:18:16.084Z,333.38
2022-11-02T03:20:56.359Z,354.40
2022-11-02T03:23:28.920Z,325.92
2022-11-02T03:26:03.797Z,386.27
2022-11-02T03:28:51.741Z,378.77
2022-11-02T03:31:28.618Z,381.27
2022-11-02T03:34:02.169Z,411.77
2022-11-02T03:36:34.012Z,375.05
2022-11-02T03:39:07.890Z,427.27
2022-11-02T03:41:41.642Z,439.55
2022-11-02T03:44:15.048Z,377.17
2022-11-02T03:46:45.510Z,504.50
2022-11-02T03:49:19.840Z,474.75
2022-11-02T03:51:50.840Z,593.67
2022-11-02T03:54:24.652Z,466.63
2022-11-02T03:56:56.027Z,579.08
2022-11-02T03:59:24.814Z,571.10
2022-11-02T04:01:54.872Z,627.80
2022-11-02T04:04:25.623Z,538.75
2022-11-02T04:06:55.652Z,496.33
2022-11-02T04:09:24.395Z,507.60
2022-11-02T04:12:10.975Z,482.77
2022-11-02T04:14:40.209Z,552.42
2022-11-02T04:17:37.256Z,647.97
2022-11-02T04:20:12.344Z,888.65
2022-11-02T04:23:03.866Z,566.33
2022-11-02T04:25:32.576Z,568.95
2022-11-02T04:28:08.411Z,626.60
2022-11-02T04:30:41.791Z,591.08
2022-11-02T04:33:29.484Z,621.47
2022-11-02T04:36:06.317Z,775.00
2022-11-02T04:38:40.750Z,664.17
2022-11-02T04:41:45.580Z,584.25
2022-11-02T04:47:06.240Z,624.22
2022-11-02T04:49:37.766Z,568.33
2022-11-02T04:52:10.507Z,485.58
2022-11-02T04:54:44.494Z,771.17
2022-11-02T04:57:13.333Z,625.78
2022-11-02T04:59:42.164Z,608.75
2022-11-02T05:02:10.943Z,532.50
2022-11-02T05:04:41.323Z,565.30
2022-11-02T05:07:10.825Z,629.05
2022-11-02T05:09:42.463Z,608.00
2022-11-02T05:12:12.327Z,521.40
2022-11-02T05:14:41.740Z,509.95
2022-11-02T05:17:10.384Z,554.60
2022-11-02T05:19:41.635Z,552.75
2022-11-02T05:22:10.939Z,516.08
2022-11-02T05:24:40.320Z,598.20
2022-11-02T05:27:11.212Z,456.80
2022-11-02T05:29:40.862Z,454.25
2022-11-02T05:32:09.718Z,478.52
2022-11-02T05:34:39.225Z,462.00
2022-11-02T05:39:39.611Z,504.98
2022-11-02T05:42:08.245Z,514.35
2022-11-02T05:44:38.158Z,501.70
2022-11-02T05:47:07.156Z,495.30
2022-11-02T05:49:35.882Z,543.83
2022-11-02T05:52:05.199Z,505.67
2022-11-02T05:54:35.268Z,556.85
2022-11-02T05:57:03.919Z,440.23
2022-11-02T05:59:32.919Z,521.38
2022-11-02T06:02:01.591Z,427.08
2022-11-02T06:04:31.043Z,455.37
2022-11-02T06:06:59.717Z,398.92
2022-11-02T06:09:28.354Z,444.17
2022-11-02T06:11:58.736Z,443.95
2022-11-02T06:16:55.450Z,384.38
2022-11-02T06:19:24.116Z,337.98
2022-11-02T06:21:52.811Z,376.20
2022-11-02T06:24:21.563Z,347.40
2022-11-02T06:26:50.163Z,305.20
2022-11-02T06:29:20.922Z,333.02
2022-11-02T06:31:49.329Z,227.85
2022-11-02T06:34:18.022Z,232.32
2022-11-02T06:36:46.706Z,231.68
2022-11-02T06:39:15.337Z,220.20
2022-11-02T06:41:43.983Z,213.45
2022-11-02T06:44:12.609Z,196.95
2022-11-02T06:46:42.276Z,178.50
2022-11-02T06:49:10.853Z,150.25
2022-11-02T06:51:39.547Z,156.23
2022-11-02T06:54:08.956Z,137.10
2022-11-02T06:56:37.682Z,118.45
2022-11-02T06:59:06.291Z,106.15
2022-11-02T07:01:35.430Z,106.70
2022-11-02T07:04:06.031Z,107.23
2022-11-02T07:06:34.725Z,89.50
2022-11-02T07:09:03.609Z,86.43
2022-11-02T07:11:32.255Z,88.82
2022-11-02T07:14:00.897Z,87.20
2022-11-02T07:16:29.429Z,87.40
2022-11-02T07:18:58.109Z,83.25
2022-11-02T07:21:28.205Z,86.80
2022-11-02T07:23:56.858Z,67.78
2022-11-02T07:26:26.585Z,75.88
2022-11-02T07:28:58.317Z,77.55
2022-11-02T07:31:27.932Z,69.70
2022-11-02T07:33:56.665Z,67.72
2022-11-02T07:36:25.337Z,68.60
2022-11-02T07:38:55.580Z,70.78
2022-11-02T07:41:24.286Z,61.50
2022-11-02T07:43:52.709Z,60.60
2022-11-02T07:46:34.244Z,55.47
2022-11-02T07:49:03.012Z,58.35
2022-11-02T07:51:31.763Z,53.70
2022-11-02T07:54:02.828Z,51.63
2022-11-02T07:56:31.506Z,49.80
2022-11-02T07:59:00.174Z,56.55
2022-11-02T08:01:28.617Z,58.50
2022-11-02T08:03:57.553Z,57.55
2022-11-02T08:06:26.229Z,50.88
2022-11-02T08:08:54.856Z,58.40
2022-11-02T08:11:24.988Z,49.05
2022-11-02T08:13:53.310Z,56.15
2022-11-02T08:16:21.939Z,56.75
2022-11-02T08:18:50.680Z,57.50
2022-11-02T08:21:19.317Z,61.08
2022-11-02T08:23:47.999Z,59.63
2022-11-02T08:26:16.705Z,61.42
2022-11-02T08:28:46.400Z,58.63
2022-11-02T08:31:17.656Z,62.97
2022-11-02T08:33:46.946Z,58.70
2022-11-02T08:36:15.547Z,58.42
2022-11-02T08:38:44.220Z,52.75
2022-11-02T08:41:14.679Z,58.75
2022-11-02T08:43:43.134Z,54.05
2022-11-02T08:46:15.760Z,55.83
2022-11-02T08:48:45.665Z,58.60
2022-11-02T08:51:14.470Z,58.42
2022-11-02T08:53:47.257Z,52.08
2022-11-02T08:56:20.227Z,55.03
2022-11-02T08:58:55.832Z,51.70
2022-11-02T09:01:31.770Z,57.65
2022-11-02T09:04:04.093Z,57.78
2022-11-02T09:06:35.265Z,50.63
2022-11-02T09:09:04.289Z,44.90
2022-11-02T09:11:33.026Z,47.85
2022-11-02T09:14:01.826Z,50.95
2022-11-02T09:16:31.673Z,48.60
2022-11-02T09:19:00.583Z,43.22
2022-11-02T09:21:29.236Z,52.17
2022-11-02T09:23:57.930Z,48.28
2022-11-02T09:26:26.951Z,44.85
2022-11-02T09:28:55.255Z,45.38
2022-11-02T09:31:23.986Z,42.97
2022-11-02T09:33:54.261Z,38.95
2022-11-02T09:38:51.556Z,47.80
2022-11-02T09:41:25.674Z,48.45
2022-11-02T09:44:01.487Z,44.83
2022-11-02T09:46:33.346Z,49.97
2022-11-02T09:49:05.683Z,52.17
2022-11-02T09:51:37.407Z,48.70
2022-11-02T09:54:13.088Z,52.67
2022-11-02T09:56:46.235Z,58.55
2022-11-02T09:59:16.526Z,54.75
2022-11-02T10:02:04.297Z,52.28
2022-11-02T10:05:17.599Z,48.97
2022-11-02T10:08:01.238Z,44.80
2022-11-02T10:10:35.654Z,51.20
2022-11-02T10:13:12.155Z,57.53
2022-11-02T10:15:45.137Z,51.50
2022-11-02T10:18:17.840Z,50.55
2022-11-02T10:20:48.139Z,49.35
2022-11-02T10:23:21.519Z,50.95
2022-11-02T10:25:50.749Z,47.33
2022-11-02T10:28:22.802Z,47.45
2022-11-02T10:30:53.659Z,51.25
2022-11-02T10:33:27.643Z,47.13
2022-11-02T10:36:19.527Z,50.58
2022-11-02T10:39:00.741Z,53.30
2022-11-02T10:41:41.337Z,40.70
2022-11-02T10:44:22.451Z,40.20
2022-11-02T10:47:00.541Z,39.35
2022-11-02T10:49:53.129Z,42.15
2022-11-02T10:52:22.397Z,39.88
2022-11-02T10:54:53.636Z,33.33
2022-11-02T10:57:25.595Z,34.25
2022-11-02T11:00:25.527Z,35.97
2022-11-02T11:03:10.119Z,34.20
2022-11-02T11:05:58.172Z,34.85
2022-11-02T11:08:32.620Z,33.55
2022-11-02T11:11:21.227Z,38.53
2022-11-02T11:16:48.204Z,27.50
2022-11-02T11:19:41.468Z,29.48
2022-11-02T11:22:28.254Z,24.42
2022-11-02T11:25:26.771Z,25.95
2022-11-02T11:27:58.363Z,27.38
2022-11-02T11:33:18.860Z,31.38
2022-11-02T11:35:50.765Z,21.25
2022-11-02T11:38:21.144Z,22.55
2022-11-02T11:40:53.950Z,24.00
2022-11-02T11:43:26.262Z,22.63
2022-11-02T11:46:00.467Z,20.17
2022-11-02T11:48:36.475Z,21.38
2022-11-02T11:51:06.260Z,28.70
2022-11-02T11:53:35.830Z,24.65
2022-11-02T11:56:04.743Z,24.25
2022-11-02T11:58:35.255Z,21.00
2022-11-02T12:01:10.724Z,23.92
2022-11-02T12:03:52.417Z,25.67
2022-11-02T12:06:26.509Z,27.65
2022-11-02T12:09:04.563Z,20.65
2022-11-02T12:11:42.451Z,19.75
2022-11-02T12:14:38.998Z,18.90
2022-11-02T12:17:21.469Z,25.40
2022-11-02T12:20:02.434Z,19.15
2022-11-02T12:22:35.407Z,23.83
2022-11-02T12:25:20.067Z,24.40
2022-11-02T12:27:54.445Z,22.20
2022-11-02T12:30:26.466Z,19.80
2022-11-02T12:33:14.223Z,22.05
2022-11-02T12:35:51.354Z,21.23
2022-11-02T12:38:43.019Z,24.48
2022-11-02T12:41:14.383Z,28.63
2022-11-02T12:43:45.261Z,26.05
2022-11-02T12:46:27.483Z,23.92
2022-11-02T12:49:07.653Z,21.05
2022-11-02T12:51:39.514Z,20.65
2022-11-02T12:54:12.973Z,31.52
2022-11-02T12:56:47.006Z,34.47
2022-11-02T12:59:20.092Z,25.73
2022-11-02T13:01:53.117Z,22.65
2022-11-02T13:04:26.244Z,16.65
2022-11-02T13:07:01.426Z,22.85
2022-11-02T13:09:32.049Z,25.02
2022-11-02T13:12:03.084Z,24.27
2022-11-02T13:14:36.074Z,22.98
2022-11-02T13:17:11.761Z,23.27
2022-11-02T13:19:43.630Z,17.83
2022-11-02T13:22:13.799Z,24.20
2022-11-02T13:24:46.882Z,29.13
2022-11-02T13:27:36.808Z,22.60
2022-11-02T13:32:42.428Z,22.97
2022-11-02T13:35:17.838Z,19.30
2022-11-02T13:37:48.990Z,22.73
2022-11-02T13:40:22.339Z,18.33
2022-11-02T13:43:27.252Z,22.08
2022-11-02T13:46:04.272Z,23.13
2022-11-02T13:48:55.528Z,25.90
2022-11-02T13:51:33.936Z,33.92
2022-11-02T13:54:11.454Z,23.55
2022-11-02T13:56:45.587Z,23.05
2022-11-02T13:59:25.626Z,21.63
2022-11-02T14:02:05.824Z,26.52
2022-11-02T14:04:43.533Z,21.13
2022-11-02T14:07:33.671Z,20.63
2022-11-02T14:10:08.739Z,29.35
2022-11-02T14:12:44.766Z,26.77
2022-11-02T14:15:49.867Z,25.65
2022-11-02T14:18:32.016Z,33.65
2022-11-02T14:21:40.644Z,36.70
2022-11-02T14:24:42.911Z,37.00
2022-11-02T14:27:29.981Z,35.20
2022-11-02T14:29:59.378Z,30.15
2022-11-02T14:32:42.173Z,39.05
2022-11-02T14:35:31.473Z,31.65
2022-11-02T14:38:19.160Z,34.05
2022-11-02T14:40:53.322Z,37.17
2022-11-02T14:43:46.076Z,35.03
2022-11-02T14:46:25.510Z,36.30
2022-11-02T14:48:55.773Z,41.13
2022-11-02T14:51:26.378Z,37.10
2022-11-02T14:53:59.411Z,48.97
2022-11-02T14:56:48.567Z,56.67
2022-11-02T14:59:19.843Z,37.03
2022-11-02T15:01:52.036Z,47.33
2022-11-02T15:04:20.821Z,45.05
2022-11-02T15:06:55.039Z,40.65
2022-11-02T15:10:00.084Z,42.53
2022-11-02T15:12:38.802Z,50.28
2022-11-02T15:15:29.541Z,45.03
2022-11-02T15:18:16.868Z,50.60
2022-11-02T15:20:46.548Z,57.47
2022-11-02T15:23:31.445Z,54.80
2022-11-02T15:26:01.969Z,47.13
2022-11-02T15:28:34.270Z,56.97
2022-11-02T15:31:06.081Z,50.42
2022-11-02T15:33:38.679Z,51.35
2022-11-02T15:36:10.006Z,61.65
2022-11-02T15:38:40.500Z,52.20
2022-11-02T15:41:26.141Z,54.17
2022-11-02T15:44:19.794Z,51.53
2022-11-02T15:46:59.923Z,52.08
2022-11-02T15:49:43.402Z,53.03
2022-11-02T15:52:19.105Z,51.45
2022-11-02T15:54:58.076Z,56.20
2022-11-02T15:57:36.504Z,57.92
2022-11-02T16:00:15.782Z,59.40
2022-11-02T16:02:47.282Z,60.60
2022-11-02T16:05:21.771Z,66.45
2022-11-02T16:08:11.352Z,71.97
2022-11-02T16:10:40.443Z,78.50
2022-11-02T16:13:19.585Z,66.68
2022-11-02T16:15:49.203Z,70.28
2022-11-02T16:18:25.328Z,60.85
2022-11-02T16:20:55.756Z,65.10
2022-11-02T16:25:54.464Z,65.00
2022-11-02T16:28:26.021Z,64.32
2022-11-02T16:31:03.397Z,65.07
2022-11-02T16:33:38.145Z,72.55
2022-11-02T16:36:07.447Z,70.28
2022-11-02T16:38:37.166Z,61.53
2022-11-02T16:41:09.061Z,58.95
2022-11-02T16:43:45.914Z,65.85
2022-11-02T16:46:17.288Z,63.72
2022-11-02T16:49:08.476Z,73.00
2022-11-02T16:51:37.753Z,67.43
2022-11-02T16:54:35.639Z,67.47
2022-11-02T16:57:11.411Z,75.97
2022-11-02T16:59:51.280Z,63.20
2022-11-02T17:02:30.596Z,56.23
2022-11-02T17:05:02.622Z,67.95
2022-11-02T17:07:40.961Z,62.08
2022-11-02T17:10:19.007Z,65.88
2022-11-02T17:12:52.867Z,60.63
2022-11-02T17:15:29.412Z,57.33
2022-11-02T17:18:26.157Z,59.95
2022-11-02T17:21:18.014Z,59.25
2022-11-02T17:23:48.629Z,65.93
2022-11-02T17:26:27.108Z,55.88
2022-11-02T17:28:56.357Z,65.07
2022-11-02T17:31:27.708Z,53.60
2022-11-02T17:33:58.370Z,62.35
2022-11-02T17:36:27.381Z,65.85
2022-11-02T17:38:56.464Z,61.67
2022-11-02T17:41:55.542Z,54.35
2022-11-02T17:44:24.089Z,53.28
2022-11-02T17:46:53.810Z,49.97
2022-11-02T17:49:22.502Z,53.95
2022-11-02T17:51:51.282Z,47.75
2022-11-02T17:54:20.150Z,46.47
2022-11-02T17:56:48.858Z,44.35
2022-11-02T17:59:17.604Z,47.92
2022-11-02T18:01:45.990Z,35.28
2022-11-02T18:04:16.086Z,30.88
2022-11-02T18:06:44.765Z,32.90
2022-11-02T18:09:14.809Z,31.35
2022-11-02T18:11:43.585Z,30.85
2022-11-02T18:14:15.849Z,27.73
2022-11-02T18:16:44.849Z,32.33
2022-11-02T18:19:15.777Z,28.40
2022-11-02T18:21:44.460Z,32.63
2022-11-02T18:24:13.085Z,25.92
2022-11-02T18:26:45.877Z,32.67
2022-11-02T18:29:15.744Z,22.40
2022-11-02T18:31:44.312Z,26.60
2022-11-02T18:34:13.054Z,29.70
2022-11-02T18:36:43.294Z,28.48
2022-11-02T18:39:11.931Z,24.73
2022-11-02T18:41:42.549Z,25.90
2022-11-02T18:44:15.274Z,22.92
2022-11-02T18:46:44.213Z,28.58
2022-11-02T18:49:12.910Z,28.83
2022-11-02T18:51:43.737Z,23.13
2022-11-02T18:54:13.248Z,29.85
2022-11-02T18:56:41.988Z,23.08
2022-11-02T18:59:11.088Z,25.05
2022-11-02T19:01:39.574Z,28.65
2022-11-02T19:04:10.858Z,24.48
2022-11-02T19:07:02.223Z,20.00
2022-11-02T19:09:31.748Z,23.70
2022-11-02T19:12:05.250Z,23.17
2022-11-02T19:14:36.429Z,23.08
2022-11-02T19:17:05.465Z,21.20
2022-11-02T19:19:34.356Z,24.65
2022-11-02T19:22:04.993Z,27.13
2022-11-02T19:24:34.203Z,26.13
2022-11-02T19:27:02.886Z,31.05
2022-11-02T19:29:31.632Z,20.52
2022-11-02T19:32:00.267Z,19.90
2022-11-02T19:34:28.613Z,20.27
2022-11-02T19:36:57.339Z,24.52
2022-11-02T19:39:27.705Z,25.63
2022-11-02T19:44:24.874Z,35.75
2022-11-02T19:46:53.435Z,24.23
2022-11-02T19:49:22.116Z,25.75
2022-11-02T19:51:50.997Z,21.00
2022-11-02T19:54:19.959Z,28.05
2022-11-02T19:56:50.199Z,26.00
2022-11-02T19:59:18.891Z,28.30
2022-11-02T20:01:50.014Z,28.40
2022-11-02T20:04:18.736Z,30.45
2022-11-02T20:06:47.383Z,29.30
2022-11-02T20:09:17.639Z,28.27
2022-11-02T20:11:47.077Z,27.27
2022-11-02T20:14:19.508Z,34.50
2022-11-02T20:17:04.116Z,26.92
2022-11-02T20:19:33.266Z,33.03
2022-11-02T20:22:02.678Z,26.90
2022-11-02T20:24:31.421Z,28.33
2022-11-02T20:27:03.048Z,25.85
2022-11-02T20:29:33.296Z,26.25
2022-11-02T20:32:01.998Z,26.13
2022-11-02T20:34:30.673Z,28.45
2022-11-02T20:36:59.449Z,31.40
2022-11-02T20:39:28.226Z,27.73
2022-11-02T20:41:57.278Z,27.42
2022-11-02T20:44:25.890Z,30.35
2022-11-02T20:46:55.738Z,32.13
2022-11-02T20:49:51.363Z,30.20
2022-11-02T20:52:13.167Z,25.95
2022-11-02T20:54:41.834Z,29.95
2022-11-02T20:57:10.588Z,33.75
2022-11-02T20:59:39.326Z,34.20
2022-11-02T21:02:10.916Z,28.17
2022-11-02T21:04:39.449Z,30.40
2022-11-02T21:07:08.658Z,32.10
2022-11-02T21:09:37.984Z,36.78
2022-11-02T21:12:24.869Z,25.58
2022-11-02T21:14:53.563Z,29.67
2022-11-02T21:17:23.632Z,30.42
2022-11-02T21:19:58.157Z,30.27
2022-11-02T21:22:36.844Z,31.70
2022-11-02T21:25:06.070Z,30.83
2022-11-02T21:27:34.724Z,34.95
2022-11-02T21:30:03.450Z,39.13
2022-11-02T21:32:33.431Z,28.55
2022-11-02T21:35:02.416Z,29.58
2022-11-02T21:37:30.647Z,29.60
2022-11-02T21:39:59.320Z,30.35
2022-11-02T21:42:27.950Z,32.38
2022-11-02T21:44:56.528Z,35.72
2022-11-02T21:47:25.780Z,29.83
2022-11-02T21:49:55.518Z,31.65
2022-11-02T21:52:24.240Z,37.72
2022-11-02T21:54:52.882Z,26.75
2022-11-02T21:57:21.491Z,32.67
2022-11-02T21:59:50.146Z,32.17
2022-11-02T22:02:19.008Z,39.50
2022-11-02T22:04:53.639Z,35.60
2022-11-02T22:07:24.151Z,33.17
2022-11-02T22:09:52.884Z,29.75
2022-11-02T22:12:39.018Z,31.70
2022-11-02T22:15:09.376Z,32.72
2022-11-02T22:20:18.785Z,36.22
2022-11-02T22:22:48.402Z,39.40
2022-11-02T22:25:17.127Z,35.88
2022-11-02T22:27:45.779Z,27.58
2022-11-02T22:30:15.264Z,30.45
2022-11-02T22:32:46.120Z,34.33
2022-11-02T22:35:14.900Z,29.27
2022-11-02T22:38:01.170Z,27.33
2022-11-02T22:40:32.041Z,28.15
2022-11-02T22:43:00.725Z,26.48
2022-11-02T22:45:29.367Z,36.45
2022-11-02T22:47:58.055Z,30.20
2022-11-02T22:50:27.891Z,25.20
2022-11-02T22:52:56.467Z,27.08
2022-11-02T22:55:25.028Z,25.15
2022-11-02T22:57:59.773Z,26.88
2022-11-02T23:00:28.795Z,34.40
2022-11-02T23:02:57.488Z,28.88
2022-11-02T23:05:26.258Z,31.88
2022-11-02T23:07:54.523Z,22.85
2022-11-02T23:10:37.387Z,32.78
2022-11-02T23:13:07.695Z,31.20
2022-11-02T23:15:36.837Z,23.20
2022-11-02T23:18:05.597Z,23.80
2022-11-02T23:20:33.261Z,25.23
2022-11-02T23:23:19.336Z,23.67
2022-11-02T23:25:55.631Z,24.23
2022-11-02T23:28:43.397Z,16.40
2022-11-02T23:31:29.679Z,21.50
2022-11-02T23:33:58.277Z,18.35
2022-11-02T23:36:25.845Z,17.83
2022-11-02T23:39:11.891Z,21.55
2022-11-02T23:41:41.677Z,21.92
2022-11-02T23:44:14.902Z,14.32
2022-11-02T23:46:44.401Z,17.08
2022-11-02T23:49:13.665Z,17.98
2022-11-02T23:51:59.786Z,16.77
2022-11-02T23:54:45.897Z,14.85
2022-11-02T23:57:14.736Z,15.95
2022-11-02T23:59:44.774Z,16.90
